Time;durP1;ratioP1;P1;durP2;ratioP2;P2;SDS_P1;SDS_P2;PMS_P1;PMS_P2;Temp;Humidity;BMP_temperature;BMP_pressure;BME280_temperature;BME280_humidity;BME280_pressure;Samples;Min_cycle;Max_cycle;Signal;HPM_P1;HPM_P2
2021/05/11 00:01:18;;;;;;;5.75;3.13;;;12.40;72.60;;;;;;5099990;28;20357;-70
2021/05/11 00:03:44;;;;;;;2.40;1.80;;;12.40;72.70;;;;;;5100320;28;20267;-70
2021/05/11 00:06:11;;;;;;;1.63;1.52;;;12.30;73.20;;;;;;5097501;28;20205;-70
2021/05/11 00:08:37;;;;;;;1.52;1.50;;;12.30;72.90;;;;;;5100069;28;20190;-70
2021/05/11 00:11:03;;;;;;;0.80;0.80;;;12.30;73.20;;;;;;5099396;28;20236;-70
2021/05/11 00:13:28;;;;;;;1.75;1.48;;;12.30;73.20;;;;;;5099388;28;20673;-70
2021/05/11 00:15:54;;;;;;;1.25;1.25;;;12.20;73.80;;;;;;5099463;28;20188;-69
2021/05/11 00:18:20;;;;;;;1.63;1.08;;;12.20;73.90;;;;;;5097522;28;20177;-70
2021/05/11 00:20:46;;;;;;;2.60;1.13;;;12.20;73.90;;;;;;5101338;28;20177;-69
2021/05/11 00:23:12;;;;;;;2.22;1.20;;;12.10;73.60;;;;;;5100206;28;20209;-71
2021/05/11 00:25:38;;;;;;;0.90;0.90;;;12.10;73.40;;;;;;5101316;28;20188;-69
2021/05/11 00:28:04;;;;;;;0.95;0.95;;;12.00;73.60;;;;;;5101891;28;20277;-70
2021/05/11 00:30:30;;;;;;;0.98;0.98;;;12.00;73.70;;;;;;5097533;28;20181;-69
2021/05/11 00:32:55;;;;;;;1.17;1.05;;;11.90;73.80;;;;;;5101487;28;20181;-70
2021/05/11 00:35:21;;;;;;;0.70;0.70;;;11.90;74.20;;;;;;5100723;28;20188;-70
2021/05/11 00:37:47;;;;;;;0.73;0.73;;;11.90;74.10;;;;;;5100504;28;20181;-69
2021/05/11 00:40:13;;;;;;;0.88;0.88;;;11.90;74.30;;;;;;5100183;28;20649;-69
2021/05/11 00:42:39;;;;;;;0.73;0.73;;;11.80;74.10;;;;;;5101607;28;20194;-69
2021/05/11 00:45:05;;;;;;;0.80;0.80;;;11.80;74.10;;;;;;5098098;28;20173;-69
2021/05/11 00:47:32;;;;;;;0.75;0.75;;;11.70;74.10;;;;;;5100782;28;20614;-70
2021/05/11 00:49:58;;;;;;;0.80;0.80;;;11.70;74.40;;;;;;5099125;28;20185;-69
2021/05/11 00:52:24;;;;;;;0.70;0.70;;;11.60;74.50;;;;;;5093780;28;21724;-70
2021/05/11 00:54:50;;;;;;;0.90;0.85;;;11.60;74.70;;;;;;5098959;28;20189;-70
2021/05/11 00:57:16;;;;;;;0.80;0.80;;;11.60;74.20;;;;;;5099661;28;20186;-71
2021/05/11 00:59:42;;;;;;;1.05;1.05;;;11.50;74.40;;;;;;5099023;28;20260;-70
2021/05/11 01:02:09;;;;;;;1.02;1.02;;;11.50;74.30;;;;;;5099541;28;20253;-70
2021/05/11 01:04:36;;;;;;;0.93;0.93;;;11.50;74.60;;;;;;5098430;28;20712;-70
2021/05/11 01:07:01;;;;;;;1.00;0.95;;;11.50;74.90;;;;;;5093130;28;20634;-70
2021/05/11 01:09:27;;;;;;;1.30;1.25;;;11.50;74.50;;;;;;5102117;28;20196;-70
2021/05/11 01:11:57;;;;;;;0.50;0.50;;;11.40;74.80;;;;;;5098770;28;20226;-69
2021/05/11 01:14:26;;;;;;;2.08;0.80;;;11.40;74.60;;;;;;5098543;28;20248;-70
2021/05/11 01:16:57;;;;;;;1.00;0.90;;;11.40;74.50;;;;;;5100673;28;20192;-71
2021/05/11 01:19:37;;;;;;;0.80;0.80;;;11.40;74.80;;;;;;5102175;28;20184;-70
2021/05/11 01:22:24;;;;;;;1.05;0.70;;;11.40;75.00;;;;;;5100214;28;20181;-70
2021/05/11 01:24:58;;;;;;;0.63;0.63;;;11.40;75.00;;;;;;5098918;28;20178;-70
2021/05/11 01:49:15;;;;;;;0.67;0.67;;;11.20;77.00;;;;;;5099428;28;20236;-70
2021/05/11 01:52:06;;;;;;;2.20;0.70;;;11.20;77.10;;;;;;5102618;28;20190;-70
2021/05/11 02:23:52;;;;;;;0.70;0.70;;;11.00;76.10;;;;;;5103348;28;20260;-70
2021/05/11 02:26:17;;;;;;;0.63;0.63;;;11.00;76.50;;;;;;5101133;28;20300;-70
2021/05/11 02:28:43;;;;;;;0.70;0.70;;;11.00;76.50;;;;;;5100625;28;20194;-69
2021/05/11 02:31:09;;;;;;;0.73;0.73;;;11.00;76.70;;;;;;5102077;28;20178;-70
2021/05/11 02:33:34;;;;;;;0.73;0.73;;;11.00;76.50;;;;;;5102996;28;20261;-70
2021/05/11 02:36:00;;;;;;;0.63;0.60;;;11.00;76.70;;;;;;5103885;28;20197;-70
2021/05/11 02:38:26;;;;;;;0.70;0.70;;;11.00;76.70;;;;;;5095964;28;20663;-70
2021/05/11 02:40:52;;;;;;;0.60;0.60;;;11.00;76.80;;;;;;5097416;28;20182;-70
2021/05/11 02:43:21;;;;;;;0.70;0.60;;;10.90;76.80;;;;;;5101103;28;20194;-70
2021/05/11 02:45:48;;;;;;;0.97;0.97;;;10.90;76.90;;;;;;5100192;28;20685;-68
2021/05/11 02:48:15;;;;;;;0.80;0.80;;;10.90;76.80;;;;;;5102602;28;20264;-69
2021/05/11 02:50:40;;;;;;;0.60;0.60;;;10.90;76.50;;;;;;5102119;28;20719;-69
2021/05/11 02:53:06;;;;;;;0.70;0.70;;;10.90;76.30;;;;;;5097552;28;20267;-69
2021/05/11 02:55:32;;;;;;;1.13;0.80;;;10.90;76.40;;;;;;5102036;28;20632;-70
2021/05/11 02:57:58;;;;;;;0.70;0.70;;;10.90;76.40;;;;;;5097431;28;20253;-70
2021/05/11 03:00:25;;;;;;;1.10;1.10;;;10.90;76.60;;;;;;5086436;28;20712;-71
2021/05/11 03:02:51;;;;;;;1.07;0.70;;;10.90;76.60;;;;;;5096668;28;20178;-70
2021/05/11 03:05:17;;;;;;;2.87;0.70;;;10.90;76.80;;;;;;5100151;28;20269;-71
2021/05/11 03:07:43;;;;;;;0.67;0.67;;;10.80;76.30;;;;;;5100800;28;20205;-70
2021/05/11 03:10:10;;;;;;;0.73;0.73;;;10.80;76.70;;;;;;5098535;28;20585;-71
2021/05/11 03:12:37;;;;;;;1.80;0.87;;;10.80;76.60;;;;;;5099633;28;20650;-70
2021/05/11 03:15:04;;;;;;;0.90;0.90;;;10.80;77.00;;;;;;5102258;28;20230;-71
2021/05/11 03:17:30;;;;;;;1.07;1.07;;;10.90;78.10;;;;;;5102470;28;20181;-70
2021/05/11 03:19:56;;;;;;;2.43;1.50;;;10.80;78.70;;;;;;5092293;28;20179;-70
2021/05/11 03:22:22;;;;;;;0.77;0.77;;;10.80;79.10;;;;;;5101342;28;20178;-70
2021/05/11 03:24:47;;;;;;;1.43;1.43;;;10.80;79.10;;;;;;5104975;28;20185;-70
2021/05/11 03:27:15;;;;;;;1.40;1.40;;;10.70;79.00;;;;;;5100327;28;20201;-71
2021/05/11 03:29:41;;;;;;;0.90;0.90;;;10.70;79.50;;;;;;5095875;28;20304;-70
2021/05/11 03:32:08;;;;;;;1.70;1.57;;;10.70;79.40;;;;;;5099958;28;20253;-70
2021/05/11 03:34:34;;;;;;;1.80;1.70;;;10.80;79.60;;;;;;5101122;28;20289;-71
2021/05/11 03:37:01;;;;;;;15.85;2.08;;;10.80;79.80;;;;;;5100416;28;20185;-70
2021/05/11 03:39:31;;;;;;;1.03;1.03;;;10.80;79.40;;;;;;5098891;28;20568;-70
2021/05/11 03:42:01;;;;;;;1.90;1.70;;;10.80;79.60;;;;;;5100777;28;20222;-70
2021/05/11 03:44:30;;;;;;;1.60;1.40;;;10.90;79.50;;;;;;5098874;28;20811;-70
2021/05/11 03:46:56;;;;;;;1.70;1.53;;;10.90;79.40;;;;;;5101006;28;20289;-70
2021/05/11 03:49:22;;;;;;;1.83;1.70;;;10.90;79.60;;;;;;5098178;28;20289;-70
2021/05/11 03:51:48;;;;;;;2.03;1.60;;;10.90;79.70;;;;;;5100163;28;20181;-70
2021/05/11 03:54:14;;;;;;;1.47;1.37;;;10.90;79.80;;;;;;5093629;28;20193;-70
2021/05/11 03:56:39;;;;;;;3.73;1.33;;;10.90;79.60;;;;;;5100573;28;20197;-70
2021/05/11 03:59:06;;;;;;;1.80;1.20;;;10.90;79.60;;;;;;5101756;28;20178;-70
2021/05/11 04:01:32;;;;;;;1.23;1.13;;;10.90;79.70;;;;;;5080164;28;20190;-71
2021/05/11 04:03:58;;;;;;;0.98;0.98;;;11.00;79.40;;;;;;5098194;28;20185;-70
2021/05/11 04:06:23;;;;;;;1.00;1.00;;;11.00;79.50;;;;;;5098864;28;20214;-70
2021/05/11 04:16:57;;;;;;;2.87;1.10;;;11.10;80.30;;;;;;5025388;28;20225;-71
2021/05/11 04:19:22;;;;;;;1.00;1.00;;;11.10;79.90;;;;;;5028128;28;20969;-71
2021/05/11 04:21:48;;;;;;;0.90;0.90;;;11.10;80.10;;;;;;5017818;28;20609;-71
2021/05/11 04:24:14;;;;;;;3.97;1.20;;;11.10;79.50;;;;;;5030129;28;20184;-71
2021/05/11 04:26:40;;;;;;;0.73;0.73;;;11.10;79.20;;;;;;5034635;28;20675;-70
2021/05/11 04:29:05;;;;;;;2.67;1.07;;;11.20;78.90;;;;;;5031138;28;20717;-71
2021/05/11 04:31:34;;;;;;;1.23;1.23;;;11.20;79.20;;;;;;5000780;28;20270;-70
2021/05/11 04:33:59;;;;;;;1.13;1.13;;;11.20;79.40;;;;;;4989780;28;20185;-72
2021/05/11 04:36:25;;;;;;;1.00;1.00;;;11.20;79.30;;;;;;4989571;28;20192;-72
2021/05/11 04:38:51;;;;;;;1.05;1.00;;;11.20;79.10;;;;;;4991888;28;20212;-72
2021/05/11 04:41:16;;;;;;;2.47;1.00;;;11.30;78.90;;;;;;4982940;28;20189;-72
2021/05/11 04:43:44;;;;;;;1.23;1.23;;;11.30;78.60;;;;;;4981171;28;20185;-72
2021/05/11 04:48:36;;;;;;;1.27;1.20;;;11.30;77.90;;;;;;4987176;28;20196;-72
2021/05/11 04:51:02;;;;;;;1.67;1.50;;;11.30;77.40;;;;;;4994903;28;20188;-71
2021/05/11 04:53:27;;;;;;;1.27;1.27;;;11.30;77.50;;;;;;5015580;28;20677;-71
2021/05/11 04:55:53;;;;;;;1.48;1.48;;;11.30;77.70;;;;;;5012220;28;20574;-71
2021/05/11 04:58:19;;;;;;;1.50;1.40;;;11.40;77.50;;;;;;5018498;28;20188;-72
2021/05/11 05:00:45;;;;;;;2.27;1.57;;;11.40;77.70;;;;;;5013595;28;20180;-72
2021/05/11 05:03:14;;;;;;;1.47;1.40;;;11.50;77.60;;;;;;5015913;28;20204;-72
2021/05/11 05:05:40;;;;;;;1.43;1.43;;;11.50;77.70;;;;;;5014525;28;20207;-71
2021/05/11 05:08:06;;;;;;;1.63;1.53;;;11.50;77.50;;;;;;5020491;28;20188;-72
2021/05/11 05:10:32;;;;;;;1.35;1.35;;;11.60;76.90;;;;;;5013317;28;20196;-75
2021/05/11 05:12:57;;;;;;;6.18;1.52;;;11.70;76.80;;;;;;5017411;28;20200;-72
2021/05/11 05:15:23;;;;;;;2.83;1.60;;;11.70;76.80;;;;;;5014517;28;20184;-73
2021/05/11 05:17:49;;;;;;;2.77;1.50;;;11.80;76.80;;;;;;5017106;28;20193;-76
2021/05/11 05:20:14;;;;;;;2.70;1.50;;;11.80;76.40;;;;;;5013743;28;20279;-75
2021/05/11 05:22:42;;;;;;;2.40;1.37;;;11.90;76.70;;;;;;5020619;28;20185;-75
2021/05/11 05:25:25;;;;;;;3.05;1.83;;;11.90;76.20;;;;;;5017829;28;20185;-76
2021/05/11 05:30:20;;;;;;;1.55;1.55;;;12.10;75.70;;;;;;5020937;28;20193;-76
2021/05/11 05:32:46;;;;;;;2.25;1.20;;;12.10;75.50;;;;;;5021749;28;20283;-71
2021/05/11 05:35:12;;;;;;;1.65;1.33;;;12.20;75.70;;;;;;5018471;28;20234;-75
2021/05/11 05:37:37;;;;;;;2.15;1.50;;;12.20;75.60;;;;;;5019419;28;20266;-75
2021/05/11 05:40:06;;;;;;;1.52;1.52;;;12.30;75.60;;;;;;5020245;28;20587;-77
2021/05/11 05:42:32;;;;;;;1.88;1.77;;;12.30;75.50;;;;;;5019431;28;20187;-75
2021/05/11 05:44:59;;;;;;;1.80;1.70;;;12.40;75.30;;;;;;5015724;28;20184;-73
2021/05/11 05:47:25;;;;;;;1.40;1.40;;;12.40;75.20;;;;;;5013564;28;20219;-73
2021/05/11 05:49:58;;;;;;;2.05;1.88;;;12.40;74.90;;;;;;5014746;28;20185;-73
2021/05/11 05:52:34;;;;;;;2.28;2.08;;;12.40;75.00;;;;;;5016481;28;20172;-73
2021/05/11 05:55:01;;;;;;;2.03;1.98;;;12.50;74.80;;;;;;5018308;28;20203;-73
2021/05/11 05:57:27;;;;;;;2.28;2.05;;;12.50;74.80;;;;;;5015008;28;20186;-74
2021/05/11 05:59:52;;;;;;;2.90;1.40;;;12.60;74.60;;;;;;5015943;28;20215;-75
2021/05/11 06:02:21;;;;;;;1.92;1.70;;;12.60;74.70;;;;;;5014673;28;20209;-74
2021/05/11 06:04:47;;;;;;;2.00;1.90;;;12.70;74.90;;;;;;5018618;28;20267;-75
2021/05/11 06:07:13;;;;;;;1.70;1.70;;;12.70;74.90;;;;;;5013344;28;20299;-75
2021/05/11 06:09:39;;;;;;;2.40;2.22;;;12.80;75.40;;;;;;5019183;28;20189;-74
2021/05/11 06:12:33;;;;;;;4.80;2.40;;;12.90;74.80;;;;;;5016327;28;20188;-75
2021/05/11 06:20:14;;;;;;;2.20;2.10;;;13.10;75.10;;;;;;5019888;28;20567;-75
2021/05/11 06:22:40;;;;;;;5.53;2.10;;;13.20;74.60;;;;;;5014872;28;20185;-75
2021/05/11 06:25:09;;;;;;;7.43;2.20;;;13.30;74.50;;;;;;5019110;28;20223;-75
2021/05/11 06:27:34;;;;;;;2.47;2.28;;;13.40;73.80;;;;;;5019915;28;20282;-75
2021/05/11 06:30:00;;;;;;;3.33;2.40;;;13.50;73.50;;;;;;5013203;28;20210;-74
2021/05/11 06:32:27;;;;;;;2.70;2.50;;;13.50;73.20;;;;;;5010365;28;20662;-75
2021/05/11 06:34:57;;;;;;;2.33;2.17;;;13.60;72.80;;;;;;5012592;28;20247;-75
2021/05/11 06:37:23;;;;;;;3.45;2.25;;;13.70;72.90;;;;;;5016465;28;20193;-74
2021/05/11 06:39:49;;;;;;;2.20;2.10;;;13.70;73.00;;;;;;5012214;28;20189;-76
2021/05/11 06:42:17;;;;;;;3.60;2.55;;;13.80;73.10;;;;;;5015519;28;20188;-74
2021/05/11 06:52:54;;;;;;;2.17;2.08;;;14.10;72.40;;;;;;5015329;28;20192;-75
2021/05/11 06:55:21;;;;;;;3.20;2.38;;;14.20;72.40;;;;;;5018263;28;20562;-74
2021/05/11 06:57:47;;;;;;;2.53;2.42;;;14.30;72.10;;;;;;5014432;28;20185;-75
2021/05/11 07:00:13;;;;;;;2.53;2.42;;;14.40;72.20;;;;;;5020990;28;20211;-76
2021/05/11 07:02:39;;;;;;;2.83;2.63;;;14.40;71.50;;;;;;5011631;28;20189;-75
2021/05/11 07:05:05;;;;;;;2.78;2.38;;;14.50;71.60;;;;;;5016024;28;20238;-75
2021/05/11 07:07:33;;;;;;;1.83;1.83;;;14.50;71.70;;;;;;5014764;28;20227;-74
2021/05/11 07:10:17;;;;;;;2.92;2.60;;;14.60;71.80;;;;;;5012644;28;20185;-75
2021/05/11 07:15:27;;;;;;;2.47;2.38;;;14.80;71.90;;;;;;5019265;28;20668;-73
2021/05/11 07:18:09;;;;;;;2.40;2.30;;;14.90;71.60;;;;;;5018255;28;20196;-75
2021/05/11 07:20:35;;;;;;;2.38;2.28;;;15.00;71.80;;;;;;5015551;28;20195;-75
2021/05/11 07:23:00;;;;;;;4.93;2.40;;;15.10;71.70;;;;;;5016457;28;20702;-75
2021/05/11 07:25:30;;;;;;;2.85;2.55;;;15.20;71.60;;;;;;5019161;28;20230;-75
2021/05/11 07:30:33;;;;;;;3.08;2.88;;;15.30;71.10;;;;;;5017957;28;20257;-75
2021/05/11 07:32:59;;;;;;;6.13;3.17;;;15.40;70.90;;;;;;5019274;28;20172;-75
2021/05/11 07:35:25;;;;;;;4.95;2.80;;;15.50;71.10;;;;;;5014939;28;20260;-74
2021/05/11 07:37:50;;;;;;;9.07;3.60;;;15.60;71.70;;;;;;5017765;28;20214;-74
2021/05/11 07:40:16;;;;;;;9.55;3.35;;;15.70;71.10;;;;;;5015594;28;20188;-75
2021/05/11 07:42:42;;;;;;;8.10;3.50;;;15.80;70.90;;;;;;5017219;28;20276;-75
2021/05/11 07:45:11;;;;;;;5.53;2.85;;;15.90;70.90;;;;;;5015404;28;20263;-74
2021/05/11 08:14:44;;;;;;;8.45;3.17;;;16.80;69.00;;;;;;4962451;28;20313;-75
2021/05/11 08:17:10;;;;;;;15.25;3.90;;;16.90;69.20;;;;;;4944929;28;20221;-76
2021/05/11 08:19:48;;;;;;;6.38;2.50;;;17.10;69.30;;;;;;4960288;28;20190;-75
2021/05/11 08:27:45;;;;;;;5.43;2.92;;;17.40;68.60;;;;;;4962104;28;20229;-74
2021/05/11 08:30:12;;;;;;;5.95;2.65;;;17.50;68.40;;;;;;5014527;28;20188;-76
2021/05/11 08:32:38;;;;;;;2.55;2.35;;;17.70;68.50;;;;;;5015785;28;20192;-75
2021/05/11 08:35:06;;;;;;;5.55;2.65;;;17.80;68.20;;;;;;5017283;28;20585;-74
2021/05/11 08:37:32;;;;;;;14.05;2.72;;;17.90;68.00;;;;;;5013031;28;20772;-74
2021/05/11 08:39:58;;;;;;;6.70;2.47;;;18.10;67.60;;;;;;5017571;28;20185;-74
2021/05/11 08:42:23;;;;;;;7.28;1.95;;;18.20;67.40;;;;;;5014540;28;20553;-73
2021/05/11 08:44:50;;;;;;;3.88;1.95;;;18.40;67.20;;;;;;5016811;28;20183;-74
2021/05/11 08:47:19;;;;;;;5.80;2.08;;;18.50;66.90;;;;;;5016264;28;20205;-73
2021/05/11 08:49:46;;;;;;;1.95;1.85;;;18.60;67.00;;;;;;5013395;28;20646;-74
2021/05/11 08:55:01;;;;;;;3.67;2.00;;;19.00;66.20;;;;;;5014022;28;20196;-75
2021/05/11 09:25:20;;;;;;;1.77;1.33;;;20.80;63.00;;;;;;5008653;28;20650;-75
2021/05/11 09:27:55;;;;;;;2.05;1.52;;;21.00;62.60;;;;;;5012092;28;20218;-75
2021/05/11 09:33:30;;;;;;;5.95;1.63;;;21.40;61.50;;;;;;5013967;28;20196;-75
2021/05/11 10:49:36;;;;;;;0.50;0.50;;;33.90;42.40;;;;;;4960542;28;20188;-76
2021/05/11 10:52:17;;;;;;;1.25;0.85;;;33.90;40.60;;;;;;5017868;28;20792;-76
2021/05/11 11:00:22;;;;;;;3.40;0.57;;;35.10;39.10;;;;;;5014233;28;20176;-76
2021/05/11 11:03:16;;;;;;;0.40;0.40;;;35.70;39.10;;;;;;5013824;28;20294;-76
2021/05/11 11:05:44;;;;;;;0.30;0.30;;;36.00;38.40;;;;;;5014834;28;20676;-76
2021/05/11 11:08:28;;;;;;;0.20;0.20;;;36.10;40.70;;;;;;5013917;28;20204;-76
2021/05/11 11:11:11;;;;;;;4.47;0.52;;;36.50;38.00;;;;;;5013899;28;20196;-77
2021/05/11 11:13:51;;;;;;;0.40;0.40;;;37.00;38.10;;;;;;5009958;28;20203;-76
2021/05/11 11:16:18;;;;;;;1.13;0.45;;;37.20;38.00;;;;;;5015143;28;20183;-76
2021/05/11 11:18:44;;;;;;;0.50;0.50;;;37.40;38.60;;;;;;5011732;28;20192;-76
2021/05/11 11:23:54;;;;;;;1.30;0.40;;;38.00;38.70;;;;;;5013798;28;20512;-75
2021/05/11 11:26:28;;;;;;;0.40;0.40;;;37.80;37.90;;;;;;5019454;28;20207;-75
2021/05/11 11:29:05;;;;;;;2.67;0.40;;;37.40;37.80;;;;;;5019326;28;20372;-75
2021/05/11 11:31:37;;;;;;;0.80;0.60;;;37.20;36.90;;;;;;5021550;28;20187;-75
2021/05/11 11:34:23;;;;;;;2.45;0.40;;;37.20;38.40;;;;;;5018797;28;20187;-76
2021/05/11 11:36:58;;;;;;;1.00;0.30;;;37.50;37.40;;;;;;5021644;28;20204;-75
2021/05/11 11:39:34;;;;;;;0.45;0.43;;;37.80;36.60;;;;;;5021120;28;20194;-76
2021/05/11 11:42:05;;;;;;;0.30;0.30;;;38.10;37.40;;;;;;5020292;28;20696;-77
2021/05/11 11:44:36;;;;;;;0.50;0.28;;;38.50;36.90;;;;;;5020196;28;20702;-77
2021/05/11 11:47:05;;;;;;;0.40;0.40;;;39.10;36.30;;;;;;5019071;28;20183;-77
2021/05/11 11:49:34;;;;;;;2.17;0.40;;;39.40;37.50;;;;;;5021646;28;20222;-76
2021/05/11 11:54:36;;;;;;;0.90;0.50;;;40.40;37.40;;;;;;5017561;28;20190;-76
2021/05/11 11:59:35;;;;;;;3.25;0.40;;;40.00;36.50;;;;;;5021921;28;20226;-77
2021/05/11 12:02:03;;;;;;;0.68;0.30;;;39.70;37.20;;;;;;5017696;28;20939;-74
2021/05/11 12:04:30;;;;;;;0.50;0.50;;;39.60;36.60;;;;;;5015483;28;20276;-76
2021/05/11 12:07:04;;;;;;;0.50;0.50;;;39.70;37.40;;;;;;5013539;28;20654;-75
2021/05/11 12:09:30;;;;;;;0.40;0.40;;;40.00;37.60;;;;;;5015217;28;20199;-76
2021/05/11 12:11:56;;;;;;;2.30;0.40;;;40.50;37.10;;;;;;5023106;28;20183;-75
2021/05/11 12:14:21;;;;;;;0.47;0.47;;;40.70;36.10;;;;;;5017550;28;20301;-75
2021/05/11 12:16:48;;;;;;;0.38;0.38;;;40.70;37.50;;;;;;5017967;28;20218;-75
2021/05/11 12:19:17;;;;;;;1.08;1.05;;;40.90;37.10;;;;;;5018955;28;20738;-75
2021/05/11 12:22:00;;;;;;;0.40;0.40;;;40.70;36.90;;;;;;5024169;28;20653;-75
2021/05/11 12:24:30;;;;;;;0.73;0.50;;;40.50;36.70;;;;;;5021906;28;20172;-74
2021/05/11 12:27:15;;;;;;;0.65;0.30;;;40.50;35.80;;;;;;5019803;28;20207;-73
2021/05/11 12:30:06;;;;;;;2.63;0.30;;;40.90;35.00;;;;;;5021876;28;20180;-76
2021/05/11 12:32:33;;;;;;;0.35;0.30;;;41.30;34.20;;;;;;5018865;28;20843;-76
2021/05/11 12:35:15;;;;;;;0.68;0.20;;;41.70;35.30;;;;;;5021927;28;20180;-75
2021/05/11 12:37:46;;;;;;;0.20;0.20;;;42.00;35.80;;;;;;5018057;28;20647;-76
2021/05/11 12:40:24;;;;;;;0.35;0.35;;;42.30;34.90;;;;;;5018100;28;20259;-76
2021/05/11 12:42:50;;;;;;;0.40;0.40;;;42.60;34.80;;;;;;5014419;28;20186;-76
2021/05/11 12:45:15;;;;;;;0.40;0.40;;;42.80;35.00;;;;;;5017980;28;20623;-76
2021/05/11 12:48:09;;;;;;;2.10;0.50;;;43.10;35.70;;;;;;5018725;28;20211;-76
2021/05/11 12:50:39;;;;;;;0.50;0.40;;;43.10;35.40;;;;;;5016535;28;20176;-76
2021/05/11 12:53:45;;;;;;;0.52;0.40;;;43.30;34.00;;;;;;5014869;28;20184;-76
2021/05/11 12:59:38;;;;;;;0.95;0.55;;;42.80;35.00;;;;;;4918657;29;20223;-76
2021/05/11 13:02:15;;;;;;;2.08;0.50;;;41.90;36.30;;;;;;4917689;29;20219;-75
2021/05/11 13:21:19;;;;;;;3.05;0.82;;;40.60;37.30;;;;;;4869629;29;20240;-76
2021/05/11 13:26:27;;;;;;;0.38;0.38;;;40.00;37.70;;;;;;4871531;29;20197;-75
2021/05/11 13:29:00;;;;;;;0.50;0.50;;;39.90;37.60;;;;;;4867415;29;20197;-74
2021/05/11 13:34:11;;;;;;;0.55;0.50;;;39.50;36.10;;;;;;4909926;29;20224;-75
2021/05/11 13:36:41;;;;;;;1.02;0.40;;;38.50;36.40;;;;;;4926930;29;20244;-76
2021/05/11 13:39:09;;;;;;;0.98;0.70;;;37.90;38.10;;;;;;4938364;28;20191;-77
2021/05/11 13:41:35;;;;;;;2.30;0.40;;;37.70;37.30;;;;;;4940855;28;20186;-76
2021/05/11 13:44:01;;;;;;;0.40;0.40;;;37.90;37.70;;;;;;4941099;28;20187;-74
2021/05/11 13:46:27;;;;;;;0.30;0.30;;;38.20;38.40;;;;;;4937281;29;20253;-75
2021/05/11 13:48:52;;;;;;;0.82;0.50;;;38.40;38.50;;;;;;4972806;28;20665;-75
2021/05/11 13:51:19;;;;;;;0.95;0.60;;;38.50;37.00;;;;;;5021411;28;20183;-76
2021/05/11 13:53:52;;;;;;;0.70;0.65;;;38.70;36.30;;;;;;5020473;28;20180;-76
2021/05/11 13:56:29;;;;;;;0.50;0.50;;;38.60;37.20;;;;;;5015947;28;20211;-76
2021/05/11 14:04:24;;;;;;;1.60;0.40;;;38.90;36.20;;;;;;5018119;28;20230;-75
2021/05/11 14:06:53;;;;;;;1.08;0.40;;;38.80;36.30;;;;;;5010343;28;20812;-75
2021/05/11 14:09:19;;;;;;;1.15;0.40;;;38.40;36.40;;;;;;5018265;28;20180;-76
2021/05/11 14:11:45;;;;;;;0.60;0.60;;;37.90;37.40;;;;;;5017047;28;20178;-76
2021/05/11 14:14:12;;;;;;;1.85;0.55;;;37.80;36.70;;;;;;5018875;28;20200;-76
2021/05/11 14:16:38;;;;;;;0.32;0.32;;;37.80;37.00;;;;;;5019988;28;20205;-75
2021/05/11 14:19:04;;;;;;;0.40;0.40;;;37.60;37.10;;;;;;5019285;28;20188;-75
2021/05/11 14:21:30;;;;;;;0.32;0.32;;;37.10;37.00;;;;;;5020366;28;20788;-75
2021/05/11 14:23:56;;;;;;;0.45;0.45;;;36.50;37.00;;;;;;5018561;28;20211;-75
2021/05/11 14:26:27;;;;;;;0.70;0.40;;;35.90;37.20;;;;;;5020004;28;20184;-75
2021/05/11 14:28:54;;;;;;;0.40;0.40;;;35.50;37.80;;;;;;5019997;28;20208;-75
2021/05/11 14:31:20;;;;;;;1.75;0.50;;;35.20;38.80;;;;;;5019759;28;21089;-74
2021/05/11 14:33:46;;;;;;;3.50;0.45;;;35.30;39.20;;;;;;5019982;28;20315;-74
2021/05/11 14:36:12;;;;;;;0.60;0.60;;;35.40;39.10;;;;;;5019390;28;20191;-75
2021/05/11 14:38:38;;;;;;;1.27;0.60;;;35.50;38.50;;;;;;5017352;28;20239;-75
2021/05/11 14:41:05;;;;;;;0.73;0.47;;;35.30;37.70;;;;;;5018853;28;20206;-75
2021/05/11 14:43:33;;;;;;;0.50;0.47;;;34.90;38.10;;;;;;5019933;28;20246;-76
2021/05/11 14:46:01;;;;;;;0.40;0.40;;;34.30;39.40;;;;;;5018454;28;20218;-76
2021/05/11 14:48:27;;;;;;;1.50;0.75;;;34.20;38.80;;;;;;5017016;28;20266;-75
2021/05/11 14:50:53;;;;;;;0.40;0.40;;;34.30;39.10;;;;;;5021036;28;20191;-75
2021/05/11 14:53:19;;;;;;;0.40;0.40;;;34.50;39.60;;;;;;5021520;28;20188;-76
2021/05/11 14:55:45;;;;;;;0.40;0.40;;;34.40;38.20;;;;;;5023006;28;20281;-76
2021/05/11 14:58:11;;;;;;;1.05;0.50;;;34.20;39.40;;;;;;5019799;28;20242;-76
2021/05/11 15:00:37;;;;;;;0.85;0.47;;;34.10;39.10;;;;;;5016739;28;20195;-77
2021/05/11 15:03:02;;;;;;;0.63;0.55;;;33.80;38.50;;;;;;5017401;28;20190;-77
2021/05/11 15:05:28;;;;;;;1.20;0.40;;;33.40;39.20;;;;;;5018521;28;20180;-76
2021/05/11 15:07:54;;;;;;;0.40;0.40;;;32.90;39.70;;;;;;5019628;28;20829;-75
2021/05/11 15:10:21;;;;;;;0.40;0.40;;;32.80;40.20;;;;;;5021323;28;20271;-76
2021/05/11 15:12:48;;;;;;;0.50;0.50;;;32.60;39.70;;;;;;5017598;28;20271;-76
2021/05/11 15:15:17;;;;;;;0.57;0.55;;;32.30;40.20;;;;;;5017014;28;20196;-75
2021/05/11 15:20:12;;;;;;;1.05;0.55;;;31.90;41.10;;;;;;5021618;28;20180;-76
2021/05/11 15:22:38;;;;;;;0.55;0.50;;;31.70;40.80;;;;;;5023846;28;20184;-77
2021/05/11 15:25:05;;;;;;;1.48;0.45;;;31.60;40.90;;;;;;5018337;28;20191;-75
2021/05/11 15:27:31;;;;;;;0.43;0.40;;;31.60;41.30;;;;;;5024159;28;20187;-76
2021/05/11 15:29:58;;;;;;;1.98;0.38;;;31.60;41.20;;;;;;5016696;28;20574;-76
2021/05/11 15:33:08;;;;;;;0.50;0.50;;;31.40;41.40;;;;;;5016577;28;20180;-76
2021/05/11 15:35:33;;;;;;;0.63;0.50;;;31.20;41.60;;;;;;5019406;28;20192;-76
2021/05/11 15:38:02;;;;;;;1.13;0.73;;;31.10;41.70;;;;;;5015459;28;20286;-76
2021/05/11 15:40:31;;;;;;;0.40;0.40;;;31.00;42.30;;;;;;5019132;28;20213;-76
2021/05/11 15:42:57;;;;;;;0.50;0.50;;;30.70;42.20;;;;;;5019456;28;20313;-77
2021/05/11 15:45:24;;;;;;;1.45;0.40;;;30.40;42.30;;;;;;5024226;28;20188;-76
2021/05/11 15:47:54;;;;;;;0.57;0.57;;;30.10;42.90;;;;;;5021991;28;20402;-76
2021/05/11 15:50:34;;;;;;;0.50;0.50;;;30.00;43.90;;;;;;5018970;28;20222;-76
2021/05/11 15:53:03;;;;;;;1.60;0.60;;;29.80;43.70;;;;;;5015102;28;20184;-77
2021/05/11 15:55:33;;;;;;;1.20;0.68;;;29.60;43.70;;;;;;5017391;28;20192;-77
2021/05/11 15:57:59;;;;;;;1.17;0.50;;;29.40;44.50;;;;;;5013711;28;20230;-76
2021/05/11 16:00:25;;;;;;;0.60;0.60;;;29.40;44.70;;;;;;5016016;28;20209;-74
2021/05/11 16:02:51;;;;;;;0.60;0.60;;;29.40;45.00;;;;;;5021105;28;20695;-75
2021/05/11 16:05:21;;;;;;;2.15;0.65;;;29.30;44.20;;;;;;5022551;28;20713;-78
2021/05/11 16:07:53;;;;;;;1.38;0.68;;;29.10;44.60;;;;;;5019447;28;20581;-75
2021/05/11 16:10:19;;;;;;;0.57;0.57;;;28.80;45.10;;;;;;5021570;28;20732;-76
2021/05/11 16:12:44;;;;;;;0.55;0.55;;;28.60;45.00;;;;;;5020802;28;20180;-76
2021/05/11 16:15:14;;;;;;;1.10;0.73;;;28.40;45.10;;;;;;5020223;28;20192;-76
2021/05/11 16:17:40;;;;;;;0.43;0.43;;;28.20;46.00;;;;;;5019859;28;20655;-75
2021/05/11 16:20:09;;;;;;;0.73;0.73;;;28.00;45.60;;;;;;5016472;28;20184;-75
2021/05/11 16:22:35;;;;;;;0.40;0.40;;;27.80;45.90;;;;;;5021902;28;20620;-76
2021/05/11 16:25:00;;;;;;;0.60;0.60;;;27.40;46.10;;;;;;5020758;28;20184;-76
2021/05/11 16:27:27;;;;;;;0.60;0.60;;;27.20;46.70;;;;;;5022854;28;20211;-76
2021/05/11 16:29:52;;;;;;;0.73;0.70;;;27.00;47.00;;;;;;5016784;28;20279;-76
2021/05/11 16:32:19;;;;;;;0.60;0.60;;;26.80;47.00;;;;;;5021798;28;20271;-76
2021/05/11 16:34:44;;;;;;;0.68;0.60;;;26.60;47.50;;;;;;5021075;28;20643;-75
2021/05/11 16:37:11;;;;;;;0.60;0.60;;;26.40;47.70;;;;;;5018636;28;20243;-75
2021/05/11 16:39:38;;;;;;;0.70;0.70;;;26.10;47.80;;;;;;5022007;28;20180;-76
2021/05/11 16:42:05;;;;;;;2.88;0.73;;;25.70;48.00;;;;;;5020577;28;20959;-76
2021/05/11 16:44:32;;;;;;;0.77;0.77;;;25.30;48.80;;;;;;5021061;28;20176;-76
2021/05/11 16:46:58;;;;;;;2.50;0.70;;;25.10;48.90;;;;;;5019992;28;20363;-75
2021/05/11 16:49:24;;;;;;;0.90;0.90;;;24.90;49.60;;;;;;5021667;28;20399;-76
2021/05/11 16:51:50;;;;;;;1.95;0.80;;;24.80;49.90;;;;;;5020897;28;20635;-76
2021/05/11 16:54:15;;;;;;;0.65;0.65;;;24.60;50.20;;;;;;5022827;28;20270;-75
2021/05/11 16:56:41;;;;;;;1.10;0.70;;;24.50;50.40;;;;;;5018672;28;20678;-74
2021/05/11 16:59:07;;;;;;;0.50;0.50;;;24.30;50.80;;;;;;5018217;28;20412;-75
2021/05/11 17:01:35;;;;;;;0.70;0.70;;;24.20;50.70;;;;;;5017215;28;20204;-76
2021/05/11 17:04:01;;;;;;;0.65;0.65;;;24.10;51.30;;;;;;5020320;28;20269;-76
2021/05/11 17:06:29;;;;;;;4.78;0.75;;;23.90;51.90;;;;;;5021020;28;20189;-76
2021/05/11 17:08:55;;;;;;;0.60;0.60;;;23.70;51.20;;;;;;5020728;28;20205;-75
2021/05/11 17:11:21;;;;;;;0.50;0.50;;;23.50;51.40;;;;;;5021941;28;20215;-75
2021/05/11 17:13:48;;;;;;;0.70;0.70;;;23.30;51.60;;;;;;5018738;28;20207;-76
2021/05/11 17:16:15;;;;;;;1.38;0.88;;;23.10;51.90;;;;;;5022408;28;20180;-76
2021/05/11 17:18:41;;;;;;;6.53;0.80;;;23.00;52.50;;;;;;5018932;28;20185;-76
2021/05/11 17:21:11;;;;;;;0.70;0.70;;;22.80;52.00;;;;;;5023001;28;20661;-76